Time;durP1;ratioP1;P1;durP2;ratioP2;P2;SDS_P1;SDS_P2;PMS_P1;PMS_P2;Temp;Humidity;BMP_temperature;BMP_pressure;BME280_temperature;BME280_humidity;BME280_pressure;Samples;Min_cycle;Max_cycle;Signal;HPM_P1;HPM_P2
2021/03/09 00:02:36;;;;;;;;;;;-0.10;99.90;;;-1.18;86.56;95824.13;10341808;28;1914;-83
2021/03/09 00:07:38;;;;;;;;;;;0.70;99.90;;;-1.16;86.15;95822.09;10328364;28;1963;-81
2021/03/09 00:12:40;;;;;;;;;;;2.20;99.90;;;-1.09;85.87;95815.00;10338812;28;1826;-82
2021/03/09 00:17:42;;;;;;;;;;;0.60;99.90;;;-1.19;85.54;95811.94;10331477;28;1932;-82
2021/03/09 00:22:44;;;;;;;;;;;0.00;99.90;;;-1.29;86.29;95819.41;10335288;28;1925;-83
2021/03/09 00:27:45;;;;;;;;;;;-0.10;99.90;;;-1.40;86.95;95806.78;10350202;28;1858;-83
2021/03/09 00:32:47;;;;;;;;;;;-0.20;99.90;;;-1.33;87.16;95796.28;10339414;28;1699;-81
2021/03/09 00:37:49;;;;;;;;;;;0.90;99.90;;;-1.36;86.46;95800.13;10348245;28;1888;-80
2021/03/09 00:42:51;;;;;;;;;;;-0.20;99.90;;;-1.34;86.84;95800.72;10343568;28;1954;-81
2021/03/09 00:47:53;;;;;;;;;;;0.20;99.90;;;-1.36;87.24;95800.13;10357018;28;1884;-81
2021/03/09 00:52:54;;;;;;;;;;;-0.30;99.90;;;-1.44;86.91;95793.22;10308833;28;1880;-81
2021/03/09 00:57:56;;;;;;;;;;;0.50;99.90;;;-1.41;86.93;95789.34;10308342;28;1900;-81
2021/03/09 01:02:58;;;;;;;;;;;-0.20;99.90;;;-1.33;87.36;95783.91;10314415;28;2046;-82
2021/03/09 01:08:00;;;;;;;;;;;-0.30;99.90;;;-1.44;86.74;95781.84;10300338;28;1897;-82
2021/03/09 01:13:04;;;;;;;;;;;-0.30;99.90;;;-1.60;87.24;95775.09;10317312;28;1953;-81
2021/03/09 01:18:06;;;;;;;;;;;0.10;99.90;;;-1.67;87.53;95769.78;10290779;28;1867;-82
2021/03/09 01:23:08;;;;;;;;;;;-0.40;99.90;;;-1.64;88.63;95774.69;10299628;28;2035;-83
2021/03/09 01:28:10;;;;;;;;;;;-0.40;99.90;;;-1.76;88.01;95759.63;10328673;28;2049;-84
2021/03/09 01:33:11;;;;;;;;;;;-0.60;99.90;;;-1.71;88.39;95755.41;10313445;28;1985;-83
2021/03/09 01:38:14;;;;;;;;;;;-0.50;99.90;;;-1.72;87.88;95745.03;10309882;28;1900;-83
2021/03/09 01:43:15;;;;;;;;;;;-0.60;99.90;;;-1.72;88.70;95735.34;10292230;28;1980;-81
2021/03/09 01:48:17;;;;;;;;;;;-0.70;99.90;;;-1.81;88.43;95725.16;10310776;28;1848;-83
2021/03/09 01:53:19;;;;;;;;;;;-0.60;99.90;;;-1.86;88.55;95720.47;10295319;28;2061;-80
2021/03/09 01:58:21;;;;;;;;;;;-0.60;99.90;;;-1.88;88.83;95719.88;10293145;28;1974;-81
2021/03/09 02:03:22;;;;;;;;;;;-0.40;99.90;;;-1.84;89.09;95715.84;10290823;28;1942;-83
2021/03/09 02:08:24;;;;;;;;;;;-0.70;99.90;;;-1.86;89.31;95707.28;10305106;28;2003;-86
2021/03/09 02:13:26;;;;;;;;;;;-0.90;99.90;;;-1.99;88.98;95710.69;10310059;28;2133;-83
2021/03/09 02:18:28;;;;;;;;;;;-0.80;99.90;;;-1.84;90.04;95705.28;10304957;28;2022;-84
2021/03/09 02:23:30;;;;;;;;;;;-0.80;99.90;;;-1.91;90.21;95707.06;10317714;28;1696;-84
2021/03/09 02:28:32;;;;;;;;;;;-0.80;99.90;;;-2.00;90.25;95701.16;10303723;28;2133;-83
2021/03/09 02:33:33;;;;;;;;;;;-0.90;99.90;;;-2.05;90.73;95703.56;10324443;28;1955;-84
2021/03/09 02:38:35;;;;;;;;;;;-1.00;99.90;;;-2.10;90.80;95690.22;10303979;28;1815;-82
2021/03/09 02:43:37;;;;;;;;;;;-1.00;99.90;;;-2.01;90.58;95688.19;10311642;28;2501;-86
2021/03/09 02:48:39;;;;;;;;;;;-1.00;99.90;;;-2.12;90.71;95688.75;10308011;28;1875;-84
2021/03/09 02:53:41;;;;;;;;;;;-1.00;99.90;;;-2.17;91.49;95684.88;10284268;28;1882;-83
2021/03/09 02:58:43;;;;;;;;;;;-1.00;99.90;;;-2.22;91.33;95682.06;10313281;28;2104;-84
2021/03/09 03:03:44;;;;;;;;;;;-1.10;99.90;;;-2.35;91.28;95681.19;10298091;28;2182;-85
2021/03/09 03:08:46;;;;;;;;;;;-1.10;99.90;;;-2.31;92.14;95679.75;10291060;28;2072;-85
2021/03/09 03:13:48;;;;;;;;;;;-1.50;99.90;;;-2.39;91.60;95687.84;10278650;28;2048;-83
2021/03/09 03:18:50;;;;;;;;;;;-1.40;99.90;;;-2.39;92.19;95685.19;10309685;28;2241;-83
2021/03/09 03:23:52;;;;;;;;;;;-1.30;99.90;;;-2.45;91.57;95687.59;10311146;28;1984;-85
2021/03/09 03:28:54;;;;;;;;;;;-1.40;99.90;;;-2.49;91.92;95685.53;10341480;28;2080;-82
2021/03/09 03:33:55;;;;;;;;;;;-0.90;99.90;;;-2.44;92.28;95688.41;10344414;28;2131;-81
2021/03/09 03:38:57;;;;;;;;;;;-1.40;99.90;;;-2.41;92.35;95687.22;10334320;28;1824;-82
2021/03/09 03:43:59;;;;;;;;;;;-0.90;99.90;;;-2.47;92.23;95688.81;10342095;28;2090;-82
2021/03/09 03:49:04;;;;;;;;;;;-1.30;99.90;;;-2.53;92.52;95686.97;10317105;28;1973;-80
2021/03/09 03:54:05;;;;;;;;;;;-1.40;99.90;;;-2.59;92.83;95687.72;10291691;28;2144;-84
2021/03/09 03:59:07;;;;;;;;;;;-1.60;99.90;;;-2.69;92.88;95684.63;10317137;28;2161;-85
2021/03/09 04:04:09;;;;;;;;;;;-1.60;99.90;;;-2.57;92.75;95675.19;10313467;28;2084;-84
2021/03/09 04:09:10;;;;;;;;;;;-1.70;99.90;;;-2.57;93.25;95673.34;10311324;28;2135;-85
2021/03/09 04:14:12;;;;;;;;;;;-1.30;99.90;;;-2.55;93.33;95668.69;10294714;28;1990;-83
2021/03/09 04:19:14;;;;;;;;;;;-1.40;99.90;;;-2.63;93.22;95666.25;10311846;28;2116;-84
2021/03/09 04:24:16;;;;;;;;;;;-1.10;99.90;;;-2.62;93.68;95665.22;10299838;28;2031;-83
2021/03/09 04:29:17;;;;;;;;;;;-1.40;99.90;;;-2.53;93.68;95650.09;10309127;28;2170;-83
2021/03/09 04:34:19;;;;;;;;;;;-1.40;99.90;;;-2.52;93.89;95643.84;10314001;28;2088;-84
2021/03/09 04:39:21;;;;;;;;;;;-1.20;99.90;;;-2.56;93.71;95653.94;10325244;28;2017;-84
2021/03/09 04:44:23;;;;;;;;;;;-1.50;99.90;;;-2.59;93.39;95654.31;10322035;28;2133;-83
2021/03/09 04:49:24;;;;;;;;;;;-1.50;99.90;;;-2.58;94.06;95663.84;10316911;28;1944;-85
2021/03/09 04:54:26;;;;;;;;;;;-1.60;99.90;;;-2.69;94.28;95653.03;10303802;28;1985;-84
2021/03/09 04:59:28;;;;;;;;;;;-1.50;99.90;;;-2.77;93.70;95661.91;10305985;28;2064;-85
2021/03/09 05:04:30;;;;;;;;;;;-1.60;99.90;;;-2.74;93.79;95661.50;10289969;28;2148;-85
2021/03/09 05:09:32;;;;;;;;;;;0.00;99.90;;;-2.80;93.94;95667.53;10311907;28;1997;-85
2021/03/09 05:14:33;;;;;;;;;;;-1.50;99.90;;;-2.91;93.97;95655.75;10320945;28;2095;-84
2021/03/09 05:19:36;;;;;;;;;;;-1.70;99.90;;;-2.88;94.07;95665.06;10340028;28;2121;-84
2021/03/09 05:24:38;;;;;;;;;;;-1.80;99.90;;;-2.85;94.41;95660.25;10345745;28;1932;-81
2021/03/09 05:29:40;;;;;;;;;;;-1.20;99.90;;;-2.86;93.97;95666.53;10330555;28;1924;-85
2021/03/09 05:34:42;;;;;;;;;;;-1.80;99.90;;;-2.78;94.05;95666.38;10298808;28;2115;-85
2021/03/09 05:39:44;;;;;;;;;;;-1.70;99.90;;;-2.82;93.73;95665.13;10308574;28;2396;-84
2021/03/09 05:44:47;;;;;;;;;;;-1.10;99.90;;;-2.80;93.53;95663.13;10323476;28;2066;-84
2021/03/09 05:49:48;;;;;;;;;;;-1.80;99.90;;;-2.70;93.97;95654.06;10328543;28;2207;-83
2021/03/09 05:54:50;;;;;;;;;;;-1.70;99.90;;;-2.76;93.70;95669.59;10326051;28;2090;-83
2021/03/09 05:59:52;;;;;;;;;;;-1.70;99.90;;;-2.79;93.94;95675.25;10329980;28;2122;-85
2021/03/09 06:04:54;;;;;;;;;;;-1.70;99.90;;;-2.76;93.84;95668.78;10292263;28;2122;-85
2021/03/09 06:09:56;;;;;;;;;;;-0.50;99.90;;;-2.74;93.52;95667.59;10323618;28;2045;-84
2021/03/09 06:15:01;;;;;;;;;;;-1.70;99.90;;;-2.67;93.92;95678.19;10322937;28;1902;-84
2021/03/09 06:20:06;;;;;;;;;;;-1.10;99.90;;;-2.57;93.28;95677.81;10316159;28;2127;-83
2021/03/09 06:25:08;;;;;;;;;;;-1.50;99.90;;;-2.61;92.94;95687.94;10326440;28;2103;-84
2021/03/09 06:30:09;;;;;;;;;;;-1.60;99.90;;;-2.54;92.78;95682.69;10308055;28;1964;-82
2021/03/09 06:35:11;;;;;;;;;;;-1.00;99.90;;;-2.48;92.66;95688.00;10316618;28;2134;-84
2021/03/09 06:40:13;;;;;;;;;;;-1.40;99.90;;;-2.35;91.52;95686.44;10307838;28;2154;-85
2021/03/09 06:45:15;;;;;;;;;;;-1.30;99.90;;;-2.19;91.10;95689.53;10287521;28;2439;-85
2021/03/09 06:50:17;;;;;;;;;;;-1.20;99.90;;;-2.10;90.37;95684.09;10326360;28;2016;-83
2021/03/09 06:55:19;;;;;;;;;;;-1.10;99.90;;;-1.99;90.06;95696.72;10332252;28;1945;-82
2021/03/09 07:00:21;;;;;;;;;;;-1.00;99.90;;;-1.83;89.20;95691.09;10319291;28;2049;-84
2021/03/09 07:05:22;;;;;;;;;;;-0.80;99.90;;;-1.50;88.31;95698.28;10317633;28;2092;-85
2021/03/09 07:10:26;;;;;;;;;;;-0.70;99.90;;;-1.62;88.17;95703.31;10319463;28;2079;-82
2021/03/09 07:15:28;;;;;;;;;;;-0.60;99.90;;;-1.40;86.64;95696.03;10324673;28;2361;-85
2021/03/09 07:20:30;;;;;;;;;;;0.70;99.90;;;-1.32;86.37;95706.41;10298239;28;1920;-86
2021/03/09 07:25:32;;;;;;;;;;;-0.40;99.90;;;-1.14;85.23;95714.56;10275020;28;1893;-83
2021/03/09 07:30:38;;;;;;;;;;;-0.20;99.90;;;-1.13;85.68;95716.19;10314698;28;1614;-82
2021/03/09 07:35:41;;;;;;;;;;;0.40;99.90;;;-0.97;85.01;95712.31;10311748;28;2051;-85
2021/03/09 07:40:43;;;;;;;;;;;1.50;99.90;;;-0.95;83.23;95709.50;10310284;28;2049;-83
2021/03/09 07:45:45;;;;;;;;;;;0.10;99.90;;;-0.88;83.11;95705.84;10336949;28;1461;-82
2021/03/09 07:50:46;;;;;;;;;;;0.60;99.90;;;-0.74;82.66;95708.47;10321500;28;1922;-85
2021/03/09 07:55:47;;;;;;;;;;;0.20;99.90;;;-0.74;82.06;95706.63;10314218;28;1990;-84
2021/03/09 08:00:48;;;;;;;;;;;0.40;99.90;;;-0.67;82.31;95710.06;10307845;28;2053;-84
2021/03/09 08:05:49;;;;;;;;;;;0.40;99.90;;;-0.30;80.41;95702.50;10311852;28;2140;-83
2021/03/09 08:10:51;;;;;;;;;;;0.60;99.90;;;-0.49;81.47;95703.34;10316724;28;1969;-84
2021/03/09 08:15:52;;;;;;;;;;;0.60;99.90;;;-0.44;81.60;95706.19;10329193;28;2061;-83
2021/03/09 08:20:57;;;;;;;;;;;0.60;99.90;;;0.04;79.90;95705.84;10335942;28;1957;-83
2021/03/09 08:25:59;;;;;;;;;;;0.90;99.90;;;0.25;79.17;95705.53;10338489;28;2007;-84
2021/03/09 08:31:03;;;;;;;;;;;2.40;99.90;;;0.50;78.61;95698.50;10321153;28;2092;-85
2021/03/09 08:36:05;;;;;;;;;;;1.40;99.90;;;0.66;77.63;95691.09;10301387;28;2050;-83
2021/03/09 08:41:07;;;;;;;;;;;1.50;99.90;;;0.79;77.01;95694.47;10304382;28;1943;-84
2021/03/09 08:46:10;;;;;;;;;;;1.70;99.90;;;1.00;75.58;95693.28;10299099;28;1980;-84
2021/03/09 08:51:12;;;;;;;;;;;1.90;99.90;;;1.32;73.57;95696.69;10306177;28;2151;-83
2021/03/09 08:56:14;;;;;;;;;;;2.60;99.90;;;1.47;72.88;95699.00;10302778;28;2010;-81
2021/03/09 09:01:16;;;;;;;;;;;2.30;99.90;;;1.61;71.97;95699.69;10304769;28;2028;-85
2021/03/09 09:06:18;;;;;;;;;;;2.50;99.90;;;1.96;70.99;95685.84;10295264;28;1990;-84
2021/03/09 09:11:20;;;;;;;;;;;3.10;99.90;;;2.35;69.27;95685.34;10307518;28;2085;-82
2021/03/09 09:16:22;;;;;;;;;;;4.60;99.90;;;2.67;67.35;95690.44;10341908;28;1877;-81
2021/03/09 09:21:24;;;;;;;;;;;3.40;99.90;;;2.61;67.37;95673.59;10329210;28;1955;-82
2021/03/09 09:26:30;;;;;;;;;;;3.70;99.90;;;2.79;65.86;95674.56;10317089;28;2045;-83
2021/03/09 09:31:32;;;;;;;;;;;3.70;99.90;;;3.23;64.73;95666.09;10328542;28;2140;-83
2021/03/09 09:36:35;;;;;;;;;;;4.30;99.90;;;2.81;65.65;95683.13;10322439;28;1667;-86
2021/03/09 09:41:52;;;;;;;;;;;3.90;99.90;;;3.11;64.11;95677.75;10310181;28;2195;-87
2021/03/09 09:47:30;;;;;;;;;;;5.60;99.90;;;3.61;61.82;95669.34;10323272;28;2021;-87
2021/03/09 09:52:44;;;;;;;;;;;5.70;99.90;;;3.37;63.20;95663.19;10304637;28;2364;-88
2021/03/09 09:57:54;;;;;;;;;;;4.40;99.90;;;3.53;61.11;95665.19;10315346;28;1985;-86
2021/03/09 10:03:00;;;;;;;;;;;4.40;99.90;;;3.42;60.54;95661.47;10319447;28;2124;-84
2021/03/09 10:08:05;;;;;;;;;;;4.40;99.90;;;3.76;60.43;95667.84;10311433;28;2341;-83
2021/03/09 10:13:07;;;;;;;;;;;4.70;99.90;;;3.73;58.27;95665.63;10316718;28;2291;-83
2021/03/09 10:18:14;;;;;;;;;;;4.80;99.90;;;3.69;57.42;95659.16;10319865;28;2102;-83
2021/03/09 10:23:17;;;;;;;;;;;5.40;98.00;;;4.11;57.71;95656.31;10336497;28;2062;-83
2021/03/09 10:28:19;;;;;;;;;;;5.00;98.20;;;3.97;56.21;95661.09;10333091;28;2102;-83
2021/03/09 10:33:28;;;;;;;;;;;5.10;95.10;;;4.38;55.38;95650.44;10336081;28;2321;-80
2021/03/09 10:38:31;;;;;;;;;;;5.20;93.90;;;4.79;54.81;95644.81;10341842;28;2108;-82
2021/03/09 10:43:33;;;;;;;;;;;5.60;93.60;;;5.21;54.36;95643.59;10300845;28;1961;-81
2021/03/09 10:48:35;;;;;;;;;;;6.40;93.00;;;5.18;51.37;95639.59;10305053;28;1957;-81
2021/03/09 10:53:37;;;;;;;;;;;6.00;88.40;;;5.66;49.39;95641.63;10312112;28;2118;-82
2021/03/09 10:58:39;;;;;;;;;;;6.40;85.50;;;5.57;46.90;95636.97;10308685;28;2340;-80
2021/03/09 11:03:40;;;;;;;;;;;6.80;81.40;;;5.57;47.33;95639.63;10298659;28;1871;-80
2021/03/09 11:08:42;;;;;;;;;;;6.60;80.00;;;5.52;46.03;95645.69;10313266;28;2077;-82
2021/03/09 11:13:44;;;;;;;;;;;7.00;77.20;;;5.52;43.26;95640.34;10338165;28;2048;-81
2021/03/09 11:18:46;;;;;;;;;;;6.60;74.60;;;5.51;46.50;95644.06;10342907;28;2030;-82
2021/03/09 11:23:51;;;;;;;;;;;8.50;77.00;;;5.71;46.86;95638.22;10318600;28;1985;-81
2021/03/09 11:28:53;;;;;;;;;;;6.50;77.10;;;5.60;46.36;95641.81;10317155;28;1929;-81
2021/03/09 11:33:55;;;;;;;;;;;7.90;76.30;;;6.05;45.65;95633.66;10319709;28;2423;-83
2021/03/09 11:38:58;;;;;;;;;;;7.60;76.00;;;5.51;46.09;95628.06;10334694;28;2057;-82
2021/03/09 11:44:00;;;;;;;;;;;6.80;73.80;;;6.67;46.43;95624.41;10342754;28;2291;-82
2021/03/09 11:49:05;;;;;;;;;;;7.60;76.60;;;6.60;42.92;95615.81;10348589;28;2346;-82
2021/03/09 11:54:08;;;;;;;;;;;8.60;72.70;;;6.59;43.18;95614.19;10325697;28;2090;-83
2021/03/09 11:59:10;;;;;;;;;;;8.70;71.80;;;6.57;43.00;95624.34;10329349;28;2002;-83
2021/03/09 12:04:12;;;;;;;;;;;7.30;71.60;;;6.53;42.11;95601.84;10337379;28;1923;-82
2021/03/09 12:09:15;;;;;;;;;;;7.60;69.50;;;6.74;40.62;95604.47;10327749;28;1948;-83
2021/03/09 12:14:17;;;;;;;;;;;8.80;69.20;;;7.09;39.84;95594.34;10322951;28;1914;-86
2021/03/09 12:19:19;;;;;;;;;;;9.00;68.20;;;6.64;40.17;95599.03;10302882;28;2337;-80
2021/03/09 12:24:21;;;;;;;;;;;7.80;65.90;;;6.63;40.15;95601.97;10312811;28;1930;-81
2021/03/09 12:29:23;;;;;;;;;;;7.70;66.40;;;7.05;39.63;95586.81;10317919;28;2241;-83
2021/03/09 12:34:25;;;;;;;;;;;7.90;66.10;;;7.09;38.17;95583.66;10322766;28;2245;-83
2021/03/09 12:39:26;;;;;;;;;;;8.00;64.30;;;7.35;37.22;95577.41;10290986;28;2177;-81
2021/03/09 12:44:28;;;;;;;;;;;8.30;63.80;;;7.22;38.34;95570.66;10329294;28;2306;-82
2021/03/09 12:49:30;;;;;;;;;;;8.30;63.60;;;7.61;37.35;95570.34;10315978;28;1978;-83
2021/03/09 12:54:32;;;;;;;;;;;8.30;63.80;;;7.39;37.15;95559.00;10312691;28;2067;-83
2021/03/09 12:59:34;;;;;;;;;;;8.30;62.90;;;7.91;38.05;95548.28;10325780;28;2507;-84
2021/03/09 13:04:36;;;;;;;;;;;8.50;63.30;;;7.44;37.80;95549.09;10324973;28;2257;-81
2021/03/09 13:09:38;;;;;;;;;;;8.50;62.30;;;7.67;39.10;95541.75;10311362;28;1923;-82
2021/03/09 13:14:40;;;;;;;;;;;8.80;63.30;;;7.30;40.89;95547.97;10328944;28;1987;-83
2021/03/09 13:19:42;;;;;;;;;;;8.50;64.00;;;6.92;41.01;95547.16;10335468;28;2230;-82
2021/03/09 13:24:47;;;;;;;;;;;8.30;64.20;;;6.82;40.63;95546.31;10336493;28;1992;-83
2021/03/09 13:29:48;;;;;;;;;;;8.40;64.70;;;6.48;41.51;95557.22;10315984;28;1995;-83
2021/03/09 13:34:50;;;;;;;;;;;7.80;64.40;;;6.38;42.12;95549.91;10321714;28;1927;-84
2021/03/09 13:39:52;;;;;;;;;;;7.60;65.00;;;6.69;41.34;95539.53;10298654;28;2127;-83
2021/03/09 13:44:54;;;;;;;;;;;7.60;65.00;;;6.84;41.18;95544.19;10309787;28;2044;-84
2021/03/09 13:49:56;;;;;;;;;;;7.80;65.30;;;6.74;40.36;95544.88;10324369;28;1946;-83
2021/03/09 13:54:58;;;;;;;;;;;8.10;64.10;;;6.26;41.38;95549.25;10295906;28;2076;-84
2021/03/09 14:00:04;;;;;;;;;;;7.60;63.80;;;6.57;39.56;95545.03;10312292;28;1994;-82
2021/03/09 14:05:26;;;;;;;;;;;;;;;6.80;40.12;95535.03;10300698;28;2247;-83
2021/03/09 14:10:28;;;;;;;;;;;7.90;99.90;;;6.39;39.99;95537.38;10319388;28;1995;-83
2021/03/09 14:15:30;;;;;;;;;;;7.60;63.00;;;6.57;39.40;95544.22;10333164;28;1946;-84
2021/03/09 14:20:33;;;;;;;;;;;8.10;63.50;;;6.57;40.17;95544.22;10333518;28;1352;-83
2021/03/09 14:25:35;;;;;;;;;;;7.60;63.30;;;6.87;39.71;95533.78;10322758;28;1704;-83
2021/03/09 14:30:39;;;;;;;;;;;7.70;63.50;;;7.00;39.55;95533.34;10318403;28;2262;-83
2021/03/09 14:35:41;;;;;;;;;;;8.30;63.10;;;6.62;38.79;95538.94;10324677;28;1915;-83
2021/03/09 14:40:44;;;;;;;;;;;8.30;61.90;;;6.49;39.43;95548.97;10306170;28;2133;-82
2021/03/09 14:45:47;;;;;;;;;;;8.80;62.80;;;6.45;39.13;95547.84;10306840;28;2066;-85
2021/03/09 14:50:49;;;;;;;;;;;7.40;61.90;;;6.57;39.00;95541.56;10331812;28;1812;-87
2021/03/09 14:55:51;;;;;;;;;;;7.50;62.50;;;6.47;39.19;95551.06;10325806;28;1958;-85
2021/03/09 15:00:53;;;;;;;;;;;7.50;62.20;;;6.63;39.42;95544.00;10330333;28;1873;-85
2021/03/09 15:05:55;;;;;;;;;;;7.60;62.50;;;6.99;39.12;95545.09;10327323;28;2017;-85
2021/03/09 15:10:57;;;;;;;;;;;9.50;63.50;;;6.44;39.29;95548.91;10303459;28;2026;-85
2021/03/09 15:15:59;;;;;;;;;;;8.10;62.10;;;6.40;40.26;95550.47;10324380;28;1977;-85
2021/03/09 15:21:03;;;;;;;;;;;7.50;62.50;;;6.41;39.71;95541.41;10329655;28;2139;-85
2021/03/09 15:26:05;;;;;;;;;;;8.40;62.80;;;6.18;41.28;95539.03;10314700;28;2032;-86
2021/03/09 15:31:11;;;;;;;;;;;7.70;63.30;;;6.24;41.65;95540.72;10280798;28;2081;-85
2021/03/09 15:36:13;;;;;;;;;;;7.50;64.00;;;6.37;40.82;95542.97;10319376;28;1998;-86
2021/03/09 15:41:15;;;;;;;;;;;7.30;64.00;;;6.29;40.93;95540.75;10331640;28;1908;-84
2021/03/09 15:46:17;;;;;;;;;;;7.30;63.60;;;6.05;41.73;95536.78;10313642;28;1750;-84
2021/03/09 15:51:23;;;;;;;;;;;7.20;63.60;;;5.98;42.69;95526.31;10315054;28;1311;-85
2021/03/09 15:56:27;;;;;;;;;;;7.10;64.70;;;5.82;43.63;95535.94;10331768;28;1883;-87
2021/03/09 16:01:35;;;;;;;;;;;6.90;65.60;;;5.64;43.74;95542.41;10330244;28;1925;-87
2021/03/09 16:12:11;;;;;;;;;;;6.60;66.60;;;5.33;44.69;95559.03;10329403;28;1993;-87
2021/03/09 16:17:14;;;;;;;;;;;6.40;66.70;;;5.09;45.41;95561.09;10313904;28;1710;-84
2021/03/09 16:22:16;;;;;;;;;;;6.20;67.10;;;4.97;45.71;95557.75;10313649;28;1774;-86
2021/03/09 16:27:21;;;;;;;;;;;7.60;68.30;;;4.83;46.16;95571.34;10296527;28;1928;-86
2021/03/09 16:32:24;;;;;;;;;;;6.00;67.80;;;4.91;46.47;95574.69;10312154;28;1918;-88
2021/03/09 16:37:44;;;;;;;;;;;5.90;68.60;;;4.69;46.33;95572.72;10325529;28;1882;-85
2021/03/09 16:42:50;;;;;;;;;;;5.80;67.80;;;4.59;47.32;95584.03;10306368;28;1919;-85
2021/03/09 16:47:52;;;;;;;;;;;6.90;69.40;;;4.49;47.32;95585.69;10302514;28;1993;-87
2021/03/09 16:52:56;;;;;;;;;;;5.60;69.10;;;4.49;47.50;95591.03;10307601;28;1982;-85
2021/03/09 16:57:59;;;;;;;;;;;5.50;69.50;;;4.46;48.05;95594.19;10303910;28;1829;-85
2021/03/09 17:03:06;;;;;;;;;;;5.60;70.10;;;4.32;48.70;95601.63;10290759;28;2076;-85
2021/03/09 17:08:10;;;;;;;;;;;6.00;70.70;;;4.21;48.78;95603.31;10295356;28;1942;-85
2021/03/09 17:13:12;;;;;;;;;;;5.40;70.60;;;4.20;49.63;95606.19;10313576;28;2021;-86
2021/03/09 17:18:14;;;;;;;;;;;6.50;71.80;;;4.05;50.43;95620.00;10319544;28;2026;-86
2021/03/09 17:23:17;;;;;;;;;;;6.20;72.50;;;3.58;56.08;95641.38;10291730;28;2513;-85
2021/03/09 17:28:19;;;;;;;;;;;5.10;76.70;;;3.42;57.41;95647.38;10301764;28;2065;-85
2021/03/09 17:33:21;;;;;;;;;;;5.60;79.10;;;3.29;59.18;95658.25;10318954;28;2034;-84
2021/03/09 17:38:23;;;;;;;;;;;4.40;80.40;;;3.09;59.78;95656.72;10332962;28;2025;-84
2021/03/09 17:43:25;;;;;;;;;;;4.30;81.70;;;2.99;60.80;95675.09;10322517;28;1860;-87
2021/03/09 17:48:28;;;;;;;;;;;4.80;82.60;;;2.94;60.81;95672.31;10309125;28;1536;-85
2021/03/09 17:53:30;;;;;;;;;;;4.10;83.20;;;2.96;61.59;95686.94;10312105;28;2027;-87
2021/03/09 17:58:44;;;;;;;;;;;4.00;83.70;;;2.82;61.89;95690.03;10294913;28;2192;-84
2021/03/09 18:03:57;;;;;;;;;;;4.00;84.20;;;2.85;62.10;95705.50;10312597;28;2048;-84
2021/03/09 18:08:59;;;;;;;;;;;5.60;85.40;;;2.86;62.21;95710.63;10330119;28;2048;-87
2021/03/09 18:14:03;;;;;;;;;;;5.10;85.60;;;2.89;62.10;95718.09;10330563;28;2321;-84
2021/03/09 18:19:08;;;;;;;;;;;4.30;85.60;;;2.75;62.69;95719.34;10329674;28;1664;-87
2021/03/09 18:24:09;;;;;;;;;;;5.20;86.30;;;2.80;62.48;95732.75;10326486;28;1321;-85
2021/03/09 18:29:12;;;;;;;;;;;4.70;86.40;;;2.78;62.94;95726.84;10345197;28;1556;-84
2021/03/09 18:34:14;;;;;;;;;;;4.20;86.40;;;2.83;62.88;95737.59;10332313;28;1949;-86
2021/03/09 18:39:16;;;;;;;;;;;3.90;86.60;;;2.87;62.52;95745.94;10316851;28;1300;-86
2021/03/09 18:44:18;;;;;;;;;;;3.80;86.40;;;2.73;63.35;95753.25;10334180;28;1527;-84
2021/03/09 18:49:20;;;;;;;;;;;3.80;86.90;;;2.50;66.04;95767.22;10349282;28;1574;-87
2021/03/09 18:54:22;;;;;;;;;;;3.70;89.20;;;2.46;67.06;95771.34;10337875;28;1891;-87
2021/03/09 18:59:24;;;;;;;;;;;4.50;90.80;;;2.47;66.11;95762.34;10342482;28;1222;-85
2021/03/09 19:04:36;;;;;;;;;;;3.60;90.20;;;2.52;65.26;95770.47;10339311;28;1308;-87
2021/03/09 19:09:39;;;;;;;;;;;5.40;90.90;;;2.53;65.14;95782.69;10307991;28;1439;-86
2021/03/09 19:14:41;;;;;;;;;;;3.60;90.10;;;2.47;65.60;95783.56;10344121;28;1895;-87
2021/03/09 19:19:44;;;;;;;;;;;3.90;90.40;;;2.41;66.46;95785.28;10332596;28;1831;-86
2021/03/09 19:24:51;;;;;;;;;;;3.50;90.80;;;2.38;66.95;95777.78;10321739;28;1622;-85
2021/03/09 19:29:53;;;;;;;;;;;5.40;92.10;;;2.46;66.14;95783.81;10314447;28;1379;-86
2021/03/09 19:34:55;;;;;;;;;;;5.20;92.20;;;2.29;67.96;95786.22;10317081;28;1918;-84
2021/03/09 19:40:00;;;;;;;;;;;3.50;92.10;;;2.20;68.13;95779.63;10311270;28;1292;-87
2021/03/09 19:45:03;;;;;;;;;;;4.40;93.30;;;2.26;67.90;95787.50;10304868;28;1580;-86
2021/03/09 19:50:05;;;;;;;;;;;3.30;93.60;;;2.13;69.59;95777.03;10300606;28;1990;-86
2021/03/09 19:55:07;;;;;;;;;;;3.20;94.50;;;2.07;70.73;95789.34;10320378;28;1981;-85
2021/03/09 20:00:09;;;;;;;;;;;3.70;95.90;;;2.06;70.88;95787.72;10303060;28;1521;-85
2021/03/09 20:05:11;;;;;;;;;;;3.20;96.30;;;2.04;71.38;95786.31;10322931;28;1200;-85
2021/03/09 20:10:14;;;;;;;;;;;3.50;97.20;;;2.03;70.28;95785.47;10326597;28;1568;-83
2021/03/09 20:15:16;;;;;;;;;;;3.10;96.50;;;2.00;70.92;95788.59;10314372;28;2000;-85
2021/03/09 20:20:18;;;;;;;;;;;3.50;97.20;;;2.12;71.19;95792.13;10329192;28;1964;-87
2021/03/09 20:25:20;;;;;;;;;;;3.10;97.70;;;2.13;71.66;95799.06;10311717;28;1805;-83
2021/03/09 20:30:22;;;;;;;;;;;3.20;98.40;;;2.25;71.68;95793.03;10325305;28;1976;-84
2021/03/09 20:35:25;;;;;;;;;;;3.50;99.00;;;2.29;71.56;95800.34;10355081;28;1914;-84
2021/03/09 20:40:27;;;;;;;;;;;4.00;99.10;;;2.27;73.44;95805.03;10342356;28;1439;-84
2021/03/09 20:45:28;;;;;;;;;;;3.30;99.90;;;2.12;75.18;95801.94;10322699;28;1608;-85
2021/03/09 20:50:30;;;;;;;;;;;3.20;99.90;;;2.02;77.53;95814.88;10323120;28;1694;-86
2021/03/09 20:55:32;;;;;;;;;;;3.10;99.90;;;1.88;78.71;95807.06;10330316;28;1949;-85
2021/03/09 21:00:34;;;;;;;;;;;3.10;99.90;;;1.90;79.57;95804.16;10310391;28;1703;-86
2021/03/09 21:05:37;;;;;;;;;;;3.00;99.90;;;1.95;80.02;95814.13;10305519;28;2302;-86
2021/03/09 21:10:39;;;;;;;;;;;3.00;99.90;;;2.07;80.51;95813.19;10319632;28;1276;-86
2021/03/09 21:15:46;;;;;;;;;;;4.20;99.90;;;2.10;79.43;95810.13;10314065;28;2067;-86
2021/03/09 21:20:51;;;;;;;;;;;4.30;99.90;;;2.11;79.78;95816.22;10313922;28;1793;-87
2021/03/09 21:25:54;;;;;;;;;;;3.20;99.90;;;2.12;79.29;95818.66;10341710;28;1996;-86
2021/03/09 21:30:57;;;;;;;;;;;3.20;99.90;;;2.17;79.82;95810.06;10329489;28;1252;-87
2021/03/09 21:35:59;;;;;;;;;;;3.20;99.90;;;2.20;80.32;95812.25;10315416;28;1975;-87
2021/03/09 21:41:03;;;;;;;;;;;3.60;99.90;;;2.24;80.39;95815.28;10321672;28;1364;-84
2021/03/09 21:46:05;;;;;;;;;;;3.30;99.90;;;2.29;80.88;95807.44;10315099;28;1261;-85
2021/03/09 21:51:07;;;;;;;;;;;3.30;99.90;;;2.26;81.35;95813.22;10323558;28;1332;-87
2021/03/09 21:56:12;;;;;;;;;;;3.30;99.90;;;2.15;82.86;95814.75;10337604;28;1895;-85
2021/03/09 22:01:14;;;;;;;;;;;3.30;99.90;;;2.05;83.05;95820.56;10321337;28;1438;-87
2021/03/09 22:06:16;;;;;;;;;;;3.20;99.90;;;2.04;84.26;95815.50;10330554;28;1604;-85
2021/03/09 22:11:18;;;;;;;;;;;3.10;99.90;;;2.01;84.86;95810.59;10339559;28;1532;-86
2021/03/09 22:16:20;;;;;;;;;;;5.20;99.90;;;2.02;85.73;95818.34;10326482;28;1918;-86
2021/03/09 22:21:22;;;;;;;;;;;3.10;99.90;;;2.00;86.55;95807.16;10333077;28;1610;-87
2021/03/09 22:26:25;;;;;;;;;;;3.10;99.90;;;1.96;86.93;95808.59;10310717;28;1548;-86
2021/03/09 22:31:27;;;;;;;;;;;3.40;99.90;;;1.91;87.36;95795.22;10334085;28;1301;-86
2021/03/09 22:36:32;;;;;;;;;;;4.10;99.90;;;1.85;88.10;95798.75;10320296;28;1906;-85
2021/03/09 22:41:34;;;;;;;;;;;2.90;99.90;;;1.76;88.01;95802.69;10313253;28;1866;-88
2021/03/09 22:46:36;;;;;;;;;;;2.80;99.90;;;1.66;88.83;95800.53;10300890;28;1861;-86
2021/03/09 22:51:38;;;;;;;;;;;2.70;99.90;;;1.60;89.69;95804.84;10321798;28;1928;-85
2021/03/09 22:56:40;;;;;;;;;;;2.80;99.90;;;1.57;89.92;95799.97;10300182;28;1978;-85
2021/03/09 23:01:41;;;;;;;;;;;2.60;99.90;;;1.50;90.25;95799.22;10326803;28;1935;-87
2021/03/09 23:06:59;;;;;;;;;;;2.60;99.90;;;1.45;90.41;95788.47;10318662;28;1971;-87
2021/03/09 23:12:03;;;;;;;;;;;2.50;99.90;;;1.49;91.21;95788.84;10290167;28;2073;-83
2021/03/09 23:17:05;;;;;;;;;;;2.50;99.90;;;1.47;90.74;95794.38;10330240;28;1971;-86
2021/03/09 23:22:07;;;;;;;;;;;2.50;99.90;;;1.47;90.83;95796.22;10320219;28;1947;-87
2021/03/09 23:27:09;;;;;;;;;;;2.70;99.90;;;1.44;91.01;95794.78;10318772;28;2048;-85
2021/03/09 23:32:11;;;;;;;;;;;3.00;99.90;;;1.38;90.26;95800.13;10315012;28;1647;-84
2021/03/09 23:37:15;;;;;;;;;;;2.50;99.90;;;1.51;91.08;95800.84;10327339;28;1942;-86
2021/03/09 23:42:17;;;;;;;;;;;3.50;99.90;;;1.53;91.29;95804.09;10317078;28;2045;-87